createdAt,value
2019-03-21T00:01:37.655Z,6.80
2019-03-21T00:04:15.928Z,7.90
2019-03-21T00:06:45.639Z,8.63
2019-03-21T00:09:21.481Z,8.10
2019-03-21T00:12:08.876Z,8.20
2019-03-21T00:14:52.287Z,8.00
2019-03-21T00:17:35.408Z,7.40
2019-03-21T00:20:15.054Z,7.80
2019-03-21T00:22:44.776Z,7.63
2019-03-21T00:25:21.361Z,7.63
2019-03-21T00:27:51.167Z,8.37
2019-03-21T00:30:26.372Z,8.37
2019-03-21T00:32:57.535Z,8.30
2019-03-21T00:35:27.247Z,7.63
2019-03-21T00:37:56.991Z,8.27
2019-03-21T00:40:30.832Z,8.23
2019-03-21T00:43:04.094Z,8.30
2019-03-21T00:45:33.834Z,7.83
2019-03-21T00:48:05.899Z,7.90
2019-03-21T00:50:35.599Z,8.40
2019-03-21T00:53:10.432Z,9.17
2019-03-21T00:55:47.858Z,9.23
2019-03-21T00:58:17.523Z,8.90
2019-03-21T01:01:03.761Z,8.90
2019-03-21T01:03:33.563Z,8.33
2019-03-21T01:06:03.292Z,9.70
2019-03-21T01:08:32.972Z,8.80
2019-03-21T01:11:02.738Z,9.37
2019-03-21T01:13:38.888Z,9.07
2019-03-21T01:16:08.694Z,9.10
2019-03-21T01:18:44.924Z,8.77
2019-03-21T01:21:14.779Z,9.03
2019-03-21T01:23:44.674Z,9.27
2019-03-21T01:26:15.779Z,9.07
2019-03-21T01:28:45.538Z,9.00
2019-03-21T01:31:15.194Z,8.67
2019-03-21T01:33:44.890Z,9.10
2019-03-21T01:36:14.658Z,9.53
2019-03-21T01:38:44.384Z,9.47
2019-03-21T01:41:19.874Z,9.43
2019-03-21T01:43:49.570Z,9.73
2019-03-21T01:46:27.279Z,9.90
2019-03-21T01:48:57.137Z,9.87
2019-03-21T01:51:26.839Z,9.87
2019-03-21T01:53:56.998Z,9.40
2019-03-21T01:56:29.363Z,9.83
2019-03-21T01:58:59.169Z,10.33
2019-03-21T02:01:29.120Z,10.50
2019-03-21T02:03:58.812Z,9.77
2019-03-21T02:06:28.564Z,10.50
2019-03-21T02:08:58.286Z,10.27
2019-03-21T02:11:27.943Z,10.57
2019-03-21T02:13:57.631Z,10.33
2019-03-21T02:16:27.289Z,10.20
2019-03-21T02:18:57.033Z,10.67
2019-03-21T02:21:26.715Z,10.10
2019-03-21T02:23:56.424Z,11.20
2019-03-21T02:26:26.113Z,10.77
2019-03-21T02:28:55.776Z,10.40
2019-03-21T02:31:25.483Z,11.03
2019-03-21T02:33:55.157Z,10.17
2019-03-21T02:36:24.912Z,10.50
2019-03-21T02:38:54.585Z,10.73
2019-03-21T02:41:25.835Z,10.43
2019-03-21T02:43:55.606Z,11.10
2019-03-21T02:46:25.272Z,9.97
2019-03-21T02:48:55.041Z,10.43
2019-03-21T02:51:24.687Z,9.73
2019-03-21T02:53:54.390Z,10.97
2019-03-21T02:56:26.568Z,9.90
2019-03-21T02:58:56.854Z,10.93
2019-03-21T03:01:26.529Z,11.20
2019-03-21T03:03:56.909Z,10.83
2019-03-21T03:06:26.634Z,10.50
2019-03-21T03:08:56.308Z,10.37
2019-03-21T03:11:26.838Z,10.50
2019-03-21T03:13:56.681Z,10.00
2019-03-21T03:16:26.383Z,9.87
2019-03-21T03:18:56.052Z,10.40
2019-03-21T03:21:25.696Z,9.30
2019-03-21T03:23:55.470Z,9.70
2019-03-21T03:26:25.125Z,9.43
2019-03-21T03:28:54.854Z,10.07
2019-03-21T03:31:24.747Z,10.07
2019-03-21T03:33:54.559Z,10.00
2019-03-21T03:36:24.200Z,9.60
2019-03-21T03:38:53.873Z,9.70
2019-03-21T03:41:23.709Z,9.50
2019-03-21T03:43:53.482Z,10.13
2019-03-21T03:46:23.232Z,9.30
2019-03-21T03:48:52.918Z,10.17
2019-03-21T03:51:22.633Z,10.27
2019-03-21T03:53:52.386Z,9.43
2019-03-21T03:56:22.362Z,10.00
2019-03-21T03:59:05.850Z,9.80
2019-03-21T04:01:35.631Z,9.73
2019-03-21T04:04:05.496Z,8.90
2019-03-21T04:06:35.373Z,9.20
2019-03-21T04:09:08.024Z,10.00
2019-03-21T04:11:38.176Z,10.20
2019-03-21T04:14:07.878Z,9.23
2019-03-21T04:16:37.662Z,10.83
2019-03-21T04:19:07.294Z,9.60
2019-03-21T04:21:37.008Z,9.80
2019-03-21T04:24:06.783Z,9.33
2019-03-21T04:26:39.165Z,10.20
2019-03-21T04:29:08.842Z,10.43
2019-03-21T04:31:38.486Z,9.83
2019-03-21T04:34:10.988Z,10.10
2019-03-21T04:36:40.672Z,10.37
2019-03-21T04:39:11.269Z,10.60
2019-03-21T04:41:44.366Z,10.87
2019-03-21T04:44:14.138Z,10.43
2019-03-21T04:46:43.902Z,10.13
2019-03-21T04:49:13.563Z,9.97
2019-03-21T04:51:43.493Z,10.50
2019-03-21T04:54:13.172Z,11.17
2019-03-21T04:56:42.858Z,11.77
2019-03-21T04:59:12.603Z,10.93
2019-03-21T05:01:42.271Z,11.67
2019-03-21T05:04:12.046Z,10.63
2019-03-21T05:06:41.694Z,12.40
2019-03-21T05:09:14.709Z,11.70
2019-03-21T05:11:44.352Z,11.63
2019-03-21T05:14:14.041Z,11.60
2019-03-21T05:16:43.725Z,11.80
2019-03-21T05:19:13.404Z,12.10
2019-03-21T05:21:43.069Z,13.40
2019-03-21T05:24:12.750Z,12.33
2019-03-21T05:26:42.496Z,13.37
2019-03-21T05:29:12.218Z,13.33
2019-03-21T05:31:41.887Z,12.57
2019-03-21T05:34:11.683Z,12.83
2019-03-21T05:36:41.670Z,13.53
2019-03-21T05:39:12.741Z,12.90
2019-03-21T05:41:42.496Z,13.47
2019-03-21T05:44:22.754Z,12.73
2019-03-21T05:46:52.391Z,14.07
2019-03-21T05:49:22.511Z,12.60
2019-03-21T05:51:52.209Z,12.80
2019-03-21T05:54:21.924Z,14.20
2019-03-21T05:56:51.584Z,25.77
2019-03-21T05:59:21.355Z,15.50
2019-03-21T06:01:51.070Z,13.87
2019-03-21T06:04:20.763Z,13.73
2019-03-21T06:07:12.446Z,13.73
2019-03-21T06:09:42.314Z,12.63
2019-03-21T06:12:11.987Z,12.70
2019-03-21T06:14:48.801Z,13.10
2019-03-21T06:17:18.523Z,12.80
2019-03-21T06:20:03.914Z,13.40
2019-03-21T06:22:43.029Z,13.07
2019-03-21T06:25:34.321Z,12.53
2019-03-21T06:28:04.047Z,12.20
2019-03-21T06:30:33.847Z,13.07
2019-03-21T06:33:03.562Z,13.70
2019-03-21T06:35:33.254Z,12.60
2019-03-21T06:38:03.057Z,13.07
2019-03-21T06:40:32.865Z,12.27
2019-03-21T06:43:02.638Z,12.43
2019-03-21T06:45:32.343Z,12.67
2019-03-21T06:48:02.042Z,11.43
2019-03-21T06:50:31.739Z,12.60
2019-03-21T06:53:03.300Z,12.40
2019-03-21T06:55:32.856Z,12.07
2019-03-21T06:58:02.503Z,12.67
2019-03-21T07:00:32.233Z,12.10
2019-03-21T07:03:01.887Z,11.73
2019-03-21T07:05:31.546Z,11.93
2019-03-21T07:08:01.484Z,11.77
2019-03-21T07:10:31.161Z,10.87
2019-03-21T07:13:00.850Z,12.10
2019-03-21T07:15:30.512Z,12.10
2019-03-21T07:18:00.243Z,11.97
2019-03-21T07:20:29.988Z,12.07
2019-03-21T07:22:59.729Z,11.27
2019-03-21T07:25:29.393Z,11.67
2019-03-21T07:27:59.149Z,11.73
2019-03-21T07:30:28.942Z,10.73
2019-03-21T07:32:58.736Z,10.73
2019-03-21T07:35:28.373Z,11.43
2019-03-21T07:37:58.149Z,9.80
2019-03-21T07:40:27.823Z,10.10
2019-03-21T07:42:57.556Z,11.13
2019-03-21T07:45:27.310Z,10.17
2019-03-21T07:47:57.064Z,10.17
2019-03-21T07:50:26.761Z,10.67
2019-03-21T07:52:56.522Z,9.80
2019-03-21T07:55:26.262Z,10.97
2019-03-21T07:57:55.988Z,10.10
2019-03-21T08:00:25.793Z,10.90
2019-03-21T08:02:55.632Z,10.43
2019-03-21T08:05:25.330Z,11.43
2019-03-21T08:07:55.012Z,10.57
2019-03-21T08:10:24.754Z,10.30
2019-03-21T08:12:54.462Z,10.30
2019-03-21T08:15:24.146Z,10.20
2019-03-21T08:17:53.963Z,9.57
2019-03-21T08:20:23.683Z,10.07
2019-03-21T08:22:53.375Z,10.10
2019-03-21T08:25:23.073Z,10.10
2019-03-21T08:27:52.812Z,10.10
2019-03-21T08:30:29.678Z,10.10
2019-03-21T08:32:59.388Z,9.23
2019-03-21T08:35:29.059Z,10.30
2019-03-21T08:37:59.523Z,9.50
2019-03-21T08:40:29.309Z,10.10
2019-03-21T08:42:59.098Z,9.73
2019-03-21T08:45:28.748Z,9.87
2019-03-21T08:47:58.446Z,10.07
2019-03-21T08:50:28.486Z,9.83
2019-03-21T08:52:58.230Z,11.13
2019-03-21T08:55:27.885Z,11.63
2019-03-21T08:57:57.611Z,10.17
2019-03-21T09:00:34.091Z,11.73
2019-03-21T09:02:58.801Z,11.00
2019-03-21T09:05:28.769Z,12.03
2019-03-21T09:07:58.509Z,11.87
2019-03-21T09:10:28.159Z,11.80
2019-03-21T09:12:57.859Z,12.03
2019-03-21T09:15:27.892Z,11.93
2019-03-21T09:17:57.588Z,13.23
2019-03-21T09:20:27.271Z,12.93
2019-03-21T09:22:56.939Z,12.03
2019-03-21T09:25:26.728Z,12.67
2019-03-21T09:28:02.481Z,12.67
2019-03-21T09:30:27.807Z,12.70
2019-03-21T09:32:57.527Z,11.80
2019-03-21T09:35:27.734Z,12.83
2019-03-21T09:37:57.513Z,12.87
2019-03-21T09:40:27.154Z,13.53
2019-03-21T09:42:56.886Z,13.27
2019-03-21T09:45:26.573Z,13.33
2019-03-21T09:47:56.254Z,12.97
2019-03-21T09:50:32.958Z,12.87
2019-03-21T09:53:02.787Z,12.27
2019-03-21T09:55:32.507Z,11.80
2019-03-21T09:58:02.164Z,12.07
2019-03-21T10:00:38.447Z,12.60
2019-03-21T10:03:08.199Z,11.80
2019-03-21T10:05:38.224Z,12.03
2019-03-21T10:08:08.210Z,12.77
2019-03-21T10:10:38.285Z,11.93
2019-03-21T10:13:08.168Z,14.27
2019-03-21T10:15:38.124Z,15.27
2019-03-21T10:18:07.996Z,14.83
2019-03-21T10:20:37.730Z,14.37
2019-03-21T10:23:07.486Z,14.40
2019-03-21T10:25:37.417Z,13.33
2019-03-21T10:28:07.351Z,13.43
2019-03-21T10:30:42.842Z,14.07
2019-03-21T10:33:14.469Z,14.73
2019-03-21T10:35:44.412Z,14.03
2019-03-21T10:38:15.075Z,15.43
2019-03-21T10:40:44.996Z,14.20
2019-03-21T10:43:14.692Z,15.13
2019-03-21T10:45:44.412Z,14.30
2019-03-21T10:48:14.196Z,11.57
2019-03-21T10:50:44.009Z,12.27
2019-03-21T10:53:13.825Z,13.10
2019-03-21T10:55:43.622Z,12.57
2019-03-21T10:58:13.318Z,13.47
2019-03-21T11:00:43.114Z,13.50
2019-03-21T11:03:12.977Z,14.90
2019-03-21T11:05:42.968Z,12.70
2019-03-21T11:08:12.800Z,13.30
2019-03-21T11:10:42.567Z,11.73
2019-03-21T11:13:12.355Z,10.57
2019-03-21T11:15:42.191Z,12.07
2019-03-21T11:18:11.982Z,13.23
2019-03-21T11:20:42.621Z,11.93
2019-03-21T11:23:12.311Z,12.13
2019-03-21T11:25:42.139Z,10.80
2019-03-21T11:28:12.026Z,9.20
2019-03-21T11:30:43.622Z,9.87
2019-03-21T11:33:13.371Z,9.20
2019-03-21T11:35:43.285Z,7.87
2019-03-21T11:38:13.093Z,6.77
2019-03-21T11:40:43.002Z,7.50
2019-03-21T11:43:12.781Z,7.37
2019-03-21T11:45:42.625Z,7.27
2019-03-21T11:48:12.337Z,7.43
2019-03-21T11:50:42.153Z,7.10
2019-03-21T11:53:12.054Z,6.63
2019-03-21T11:55:41.779Z,6.00
2019-03-21T11:58:11.581Z,5.60
2019-03-21T12:00:43.951Z,6.77
2019-03-21T12:03:13.370Z,9.00
2019-03-21T12:05:43.137Z,8.60
2019-03-21T12:08:12.855Z,8.67
2019-03-21T12:10:42.577Z,9.30
2019-03-21T12:13:12.295Z,9.43
2019-03-21T12:15:42.165Z,7.83
2019-03-21T12:18:11.917Z,8.60
2019-03-21T12:20:41.757Z,9.40
2019-03-21T12:23:11.434Z,7.90
2019-03-21T12:25:41.117Z,7.33
2019-03-21T12:28:10.911Z,7.97
2019-03-21T12:30:41.930Z,7.23
2019-03-21T12:33:11.838Z,6.70
2019-03-21T12:35:41.623Z,6.77
2019-03-21T12:38:11.577Z,6.53
2019-03-21T12:40:41.326Z,8.10
2019-03-21T12:43:11.084Z,7.13
2019-03-21T12:45:40.755Z,7.90
2019-03-21T12:48:10.470Z,7.33
2019-03-21T12:50:40.503Z,7.13
2019-03-21T12:53:10.237Z,7.70
2019-03-21T12:55:40.042Z,8.07
2019-03-21T12:58:09.726Z,7.47
2019-03-21T13:00:41.284Z,7.23
2019-03-21T13:03:12.173Z,6.50
2019-03-21T13:05:42.659Z,7.27
2019-03-21T13:08:12.825Z,7.90
2019-03-21T13:10:42.723Z,8.27
2019-03-21T13:13:12.732Z,7.90
2019-03-21T13:15:42.442Z,7.40
2019-03-21T13:18:12.274Z,9.10
2019-03-21T13:20:42.391Z,8.40
2019-03-21T13:23:12.214Z,8.80
2019-03-21T13:25:42.000Z,7.80
2019-03-21T13:28:11.767Z,8.10
2019-03-21T13:30:41.485Z,8.47
2019-03-21T13:33:11.199Z,8.67
2019-03-21T13:35:40.877Z,8.30
2019-03-21T13:38:11.012Z,9.70
2019-03-21T13:40:40.716Z,9.33
2019-03-21T13:43:11.384Z,9.30
2019-03-21T13:45:41.202Z,8.20
2019-03-21T13:48:11.247Z,8.87
2019-03-21T13:50:40.923Z,9.20
2019-03-21T13:53:18.590Z,8.60
2019-03-21T13:55:42.109Z,9.23
2019-03-21T13:58:11.867Z,8.60
2019-03-21T14:00:41.626Z,7.87
2019-03-21T14:03:11.374Z,7.57
2019-03-21T14:05:41.060Z,7.70
2019-03-21T14:08:10.739Z,8.50
2019-03-21T14:10:40.857Z,8.33
2019-03-21T14:13:10.563Z,8.93
2019-03-21T14:15:40.704Z,8.90
2019-03-21T14:18:10.374Z,9.63
2019-03-21T14:20:40.171Z,9.10
2019-03-21T14:23:16.900Z,8.53
2019-03-21T14:25:41.249Z,7.67
2019-03-21T14:28:10.897Z,8.20
2019-03-21T14:30:40.589Z,7.97
2019-03-21T14:33:10.341Z,7.60
2019-03-21T14:35:40.113Z,7.63
2019-03-21T14:38:09.805Z,8.30
2019-03-21T14:40:39.522Z,7.30
2019-03-21T14:43:09.408Z,7.27
2019-03-21T14:45:39.085Z,7.50
2019-03-21T14:48:08.802Z,7.03
2019-03-21T14:50:38.711Z,8.23
2019-03-21T14:53:08.547Z,7.77
2019-03-21T14:55:47.088Z,6.93
2019-03-21T14:58:09.690Z,7.33
2019-03-21T15:00:39.417Z,8.17
2019-03-21T15:03:09.151Z,8.50
2019-03-21T15:05:39.106Z,8.97
2019-03-21T15:08:08.915Z,8.63
2019-03-21T15:10:38.771Z,8.63
2019-03-21T15:13:08.452Z,8.27
2019-03-21T15:15:38.213Z,7.67
2019-03-21T15:18:07.881Z,6.67
2019-03-21T15:20:37.596Z,6.67
2019-03-21T15:23:07.393Z,6.97
2019-03-21T15:25:37.468Z,8.43
2019-03-21T15:28:07.278Z,7.80
2019-03-21T15:30:36.936Z,9.60
2019-03-21T15:33:06.645Z,8.07
2019-03-21T15:35:36.316Z,7.70
2019-03-21T15:38:06.125Z,8.80
2019-03-21T15:40:35.891Z,8.60
2019-03-21T15:43:05.711Z,8.20
2019-03-21T15:45:35.461Z,9.73
2019-03-21T15:48:05.302Z,8.93
2019-03-21T15:50:38.634Z,8.83
2019-03-21T15:53:08.954Z,9.80
2019-03-21T15:55:38.709Z,11.83
2019-03-21T15:58:08.409Z,9.40
2019-03-21T16:00:43.200Z,9.40
2019-03-21T16:03:13.914Z,9.97
2019-03-21T16:05:43.625Z,9.93
2019-03-21T16:08:13.348Z,11.10
2019-03-21T16:10:43.228Z,11.17
2019-03-21T16:13:13.012Z,10.00
2019-03-21T16:15:42.693Z,10.03
2019-03-21T16:18:12.428Z,10.37
2019-03-21T16:20:42.220Z,10.80
2019-03-21T16:23:11.928Z,11.20
2019-03-21T16:25:41.764Z,11.20
2019-03-21T16:28:11.492Z,12.13
2019-03-21T16:30:41.276Z,9.90
2019-03-21T16:33:11.036Z,11.80
2019-03-21T16:35:40.868Z,11.37
2019-03-21T16:38:10.753Z,12.00
2019-03-21T16:40:40.531Z,11.47
2019-03-21T16:43:10.246Z,11.30
2019-03-21T16:45:40.123Z,12.23
2019-03-21T16:48:09.780Z,13.07
2019-03-21T16:50:39.901Z,14.17
2019-03-21T16:53:09.674Z,13.20
2019-03-21T16:55:40.465Z,13.80
2019-03-21T16:58:10.440Z,12.70
2019-03-21T17:00:40.116Z,13.30
2019-03-21T17:03:09.899Z,14.00
2019-03-21T17:05:39.577Z,13.70
2019-03-21T17:08:11.618Z,15.67
2019-03-21T17:10:40.803Z,17.10
2019-03-21T17:13:10.618Z,16.13
2019-03-21T17:15:40.321Z,19.07
2019-03-21T17:18:10.338Z,17.87
2019-03-21T17:20:40.005Z,17.13
2019-03-21T17:23:09.675Z,17.53
2019-03-21T17:25:39.535Z,18.30
2019-03-21T17:28:09.269Z,18.77
2019-03-21T17:30:38.971Z,18.37
2019-03-21T17:33:08.622Z,17.17
2019-03-21T17:35:38.317Z,18.57
2019-03-21T17:38:07.972Z,19.20
2019-03-21T17:40:37.706Z,19.13
2019-03-21T17:43:07.725Z,18.37
2019-03-21T17:45:37.572Z,19.07
2019-03-21T17:48:07.322Z,18.80
2019-03-21T17:50:37.115Z,18.47
2019-03-21T17:53:06.844Z,18.80
2019-03-21T17:55:36.554Z,19.00
2019-03-21T17:58:06.402Z,18.87
2019-03-21T18:00:37.181Z,18.90
2019-03-21T18:03:07.311Z,19.07
2019-03-21T18:05:37.038Z,19.00
2019-03-21T18:08:06.739Z,18.13
2019-03-21T18:10:36.564Z,18.20
2019-03-21T18:13:06.884Z,18.90
2019-03-21T18:15:36.823Z,18.07
2019-03-21T18:18:06.763Z,18.47
2019-03-21T18:20:36.582Z,19.87
2019-03-21T18:23:06.380Z,20.10
2019-03-21T18:25:36.195Z,20.67
2019-03-21T18:28:08.524Z,20.63
2019-03-21T18:30:37.487Z,20.27
2019-03-21T18:33:07.144Z,19.57
2019-03-21T18:35:37.006Z,20.23
2019-03-21T18:38:06.760Z,19.33
2019-03-21T18:40:36.494Z,20.40
2019-03-21T18:43:06.185Z,20.17
2019-03-21T18:45:36.070Z,20.37
2019-03-21T18:48:05.990Z,20.17
2019-03-21T18:50:35.789Z,19.83
2019-03-21T18:53:05.690Z,21.80
2019-03-21T18:55:35.585Z,19.80
2019-03-21T18:58:05.554Z,19.80
2019-03-21T19:00:35.523Z,20.20
2019-03-21T19:03:05.555Z,20.97
2019-03-21T19:05:35.289Z,20.90
2019-03-21T19:08:05.180Z,21.50
2019-03-21T19:10:35.174Z,19.47
2019-03-21T19:13:05.187Z,21.70
2019-03-21T19:15:34.939Z,20.70
2019-03-21T19:18:04.880Z,20.20
2019-03-21T19:20:34.594Z,20.83
2019-03-21T19:23:04.394Z,21.50
2019-03-21T19:25:34.136Z,21.67
2019-03-21T19:28:03.987Z,21.43
2019-03-21T19:30:33.757Z,22.03
2019-03-21T19:33:03.572Z,22.00
2019-03-21T19:35:33.328Z,22.83
2019-03-21T19:38:03.127Z,21.43
2019-03-21T19:40:32.873Z,23.07
2019-03-21T19:43:02.648Z,23.90
2019-03-21T19:45:32.336Z,22.03
2019-03-21T19:48:02.052Z,22.53
2019-03-21T19:50:31.808Z,22.70
2019-03-21T19:53:01.921Z,21.20
2019-03-21T19:55:31.685Z,23.00
2019-03-21T19:58:01.382Z,23.00
2019-03-21T20:00:31.217Z,22.93
2019-03-21T20:03:01.128Z,23.33
2019-03-21T20:05:31.224Z,22.57
2019-03-21T20:08:01.100Z,23.60
2019-03-21T20:10:30.906Z,23.00
2019-03-21T20:13:00.614Z,24.70
2019-03-21T20:15:30.383Z,23.87
2019-03-21T20:18:00.103Z,24.23
2019-03-21T20:20:31.026Z,24.40
2019-03-21T20:23:00.981Z,24.90
2019-03-21T20:25:41.946Z,25.30
2019-03-21T20:28:02.158Z,24.93
2019-03-21T20:30:31.886Z,25.20
2019-03-21T20:33:01.683Z,24.63
2019-03-21T20:35:31.486Z,24.17
2019-03-21T20:38:01.386Z,25.33
2019-03-21T20:40:31.066Z,24.67
2019-03-21T20:43:00.779Z,24.43
2019-03-21T20:45:30.486Z,25.33
2019-03-21T20:48:00.190Z,25.57
2019-03-21T20:50:29.873Z,26.90
2019-03-21T20:53:00.065Z,25.43
2019-03-21T20:55:29.776Z,24.57
2019-03-21T20:57:59.482Z,25.80
2019-03-21T21:00:29.514Z,24.73
2019-03-21T21:02:59.237Z,26.70
2019-03-21T21:05:28.999Z,24.77
2019-03-21T21:07:58.692Z,27.47
2019-03-21T21:10:28.372Z,28.90
2019-03-21T21:12:58.111Z,26.90
2019-03-21T21:15:27.929Z,27.50
2019-03-21T21:17:57.665Z,25.40
2019-03-21T21:20:27.441Z,27.47
2019-03-21T21:22:57.469Z,28.07
2019-03-21T21:25:27.156Z,27.70
2019-03-21T21:27:56.854Z,28.83
2019-03-21T21:30:26.702Z,28.93
2019-03-21T21:32:56.736Z,27.33
2019-03-21T21:35:26.493Z,28.60
2019-03-21T21:37:56.205Z,28.30
2019-03-21T21:40:25.931Z,29.13
2019-03-21T21:42:55.675Z,29.70
2019-03-21T21:45:25.393Z,28.63
2019-03-21T21:47:55.130Z,28.63
2019-03-21T21:50:24.873Z,29.97
2019-03-21T21:52:54.550Z,30.73
2019-03-21T21:55:24.239Z,30.40
2019-03-21T21:57:54.079Z,30.60
2019-03-21T22:00:24.033Z,30.10
2019-03-21T22:02:53.811Z,31.37
2019-03-21T22:05:23.494Z,31.53
2019-03-21T22:07:53.228Z,31.97
2019-03-21T22:10:22.917Z,33.50
2019-03-21T22:12:52.651Z,33.70
2019-03-21T22:15:22.377Z,34.37
2019-03-21T22:17:52.139Z,34.50
2019-03-21T22:20:21.865Z,34.40
2019-03-21T22:22:51.574Z,35.43
2019-03-21T22:25:21.231Z,36.03
2019-03-21T22:27:51.083Z,37.27
2019-03-21T22:30:21.177Z,37.83
2019-03-21T22:32:51.040Z,35.93
2019-03-21T22:35:20.857Z,39.33
2019-03-21T22:37:50.684Z,37.13
2019-03-21T22:40:21.518Z,35.87
2019-03-21T22:42:51.173Z,38.17
2019-03-21T22:45:20.947Z,37.23
2019-03-21T22:47:50.961Z,36.37
2019-03-21T22:50:20.786Z,38.90
2019-03-21T22:52:50.526Z,40.13
2019-03-21T22:55:20.227Z,41.43
2019-03-21T22:57:49.980Z,40.43
2019-03-21T23:00:23.517Z,41.07
2019-03-21T23:02:53.321Z,40.17
2019-03-21T23:05:23.188Z,41.03
2019-03-21T23:07:52.993Z,42.03
2019-03-21T23:10:23.028Z,44.07
2019-03-21T23:12:52.706Z,42.77
2019-03-21T23:15:22.536Z,43.07
2019-03-21T23:17:52.207Z,41.07
2019-03-21T23:20:22.073Z,41.53
2019-03-21T23:22:51.800Z,43.70
2019-03-21T23:25:21.515Z,43.40
2019-03-21T23:27:51.372Z,44.60
2019-03-21T23:30:21.278Z,43.37
2019-03-21T23:32:50.929Z,44.47
2019-03-21T23:35:20.627Z,46.40
2019-03-21T23:37:50.360Z,45.63
2019-03-21T23:40:20.024Z,46.13
2019-03-21T23:42:49.747Z,47.70
2019-03-21T23:45:20.075Z,47.40
2019-03-21T23:47:50.038Z,47.83
2019-03-21T23:50:19.723Z,48.17
2019-03-21T23:52:49.470Z,49.30
2019-03-21T23:55:19.198Z,50.50
2019-03-21T23:57:49.050Z,47.90
